createdAt,value
2022-10-13T00:00:28.600Z,13.14
2022-10-13T00:05:51.452Z,12.59
2022-10-13T00:10:53.847Z,14.54
2022-10-13T00:15:56.324Z,15.45
2022-10-13T00:20:59.002Z,13.92
2022-10-13T00:26:02.842Z,12.47
2022-10-13T00:31:08.195Z,12.56
2022-10-13T00:36:10.599Z,14.76
2022-10-13T00:41:13.075Z,14.10
2022-10-13T00:46:16.065Z,12.11
2022-10-13T00:51:21.306Z,11.86
2022-10-13T00:56:25.694Z,13.74
2022-10-13T01:01:28.659Z,14.23
2022-10-13T01:06:31.203Z,12.33
2022-10-13T01:11:36.515Z,11.21
2022-10-13T01:16:43.797Z,12.92
2022-10-13T01:21:49.115Z,14.02
2022-10-13T01:26:51.475Z,12.87
2022-10-13T01:31:56.794Z,11.04
2022-10-13T01:37:02.100Z,11.81
2022-10-13T01:42:11.396Z,13.47
2022-10-13T01:47:15.581Z,12.77
2022-10-13T01:52:20.460Z,10.74
2022-10-13T01:57:25.939Z,10.43
2022-10-13T02:02:31.934Z,12.33
2022-10-13T02:07:43.799Z,13.26
2022-10-13T02:12:49.131Z,12.87
2022-10-13T02:17:52.454Z,10.78
2022-10-13T02:22:57.381Z,11.30
2022-10-13T02:28:00.729Z,13.00
2022-10-13T02:33:03.324Z,13.84
2022-10-13T02:38:06.039Z,13.47
2022-10-13T02:43:08.451Z,11.56
2022-10-13T02:48:11.023Z,11.96
2022-10-13T02:53:13.418Z,13.70
2022-10-13T02:58:15.887Z,14.48
2022-10-13T03:03:18.307Z,13.29
2022-10-13T03:08:20.689Z,11.70
2022-10-13T03:13:23.183Z,11.56
2022-10-13T03:18:25.905Z,13.71
2022-10-13T03:23:28.493Z,14.73
2022-10-13T03:28:31.307Z,13.30
2022-10-13T03:33:33.825Z,11.79
2022-10-13T03:38:36.897Z,11.28
2022-10-13T03:43:39.881Z,13.25
2022-10-13T03:48:56.309Z,14.50
2022-10-13T03:53:58.707Z,13.47
2022-10-13T03:59:04.760Z,11.66
2022-10-13T04:04:10.253Z,12.03
2022-10-13T04:09:13.080Z,13.90
2022-10-13T04:14:15.457Z,14.43
2022-10-13T04:19:17.981Z,12.75
2022-10-13T04:24:20.447Z,11.56
2022-10-13T04:29:22.821Z,13.18
2022-10-13T04:34:25.259Z,14.63
2022-10-13T04:39:27.636Z,13.95
2022-10-13T04:44:31.005Z,12.21
2022-10-13T04:49:33.772Z,11.46
2022-10-13T04:54:36.165Z,13.30
2022-10-13T04:59:38.585Z,14.71
2022-10-13T05:04:41.005Z,14.33
2022-10-13T05:09:43.381Z,12.56
2022-10-13T05:14:45.873Z,11.47
2022-10-13T05:19:48.813Z,12.48
2022-10-13T05:24:51.225Z,14.46
2022-10-13T05:29:53.655Z,15.27
2022-10-13T05:34:56.036Z,13.88
2022-10-13T05:39:58.428Z,12.40
2022-10-13T05:45:00.856Z,11.60
2022-10-13T05:50:03.461Z,13.07
2022-10-13T05:55:08.996Z,15.01
2022-10-13T06:00:13.611Z,15.24
2022-10-13T06:05:18.129Z,13.56
2022-10-13T06:10:20.694Z,12.53
2022-10-13T06:15:27.849Z,11.95
2022-10-13T06:20:30.945Z,13.67
2022-10-13T06:25:33.402Z,15.55
2022-10-13T06:30:38.066Z,15.45
2022-10-13T06:35:40.562Z,13.86
2022-10-13T06:40:43.392Z,12.98
2022-10-13T06:45:45.854Z,13.68
2022-10-13T06:50:48.407Z,15.88
2022-10-13T06:55:52.555Z,15.96
2022-10-13T07:00:55.553Z,14.55
2022-10-13T07:06:00.758Z,13.76
2022-10-13T07:11:06.073Z,13.31
2022-10-13T07:16:09.056Z,14.13
2022-10-13T07:21:11.477Z,16.55
2022-10-13T07:26:14.912Z,16.18
2022-10-13T07:31:18.458Z,14.95
2022-10-13T07:36:20.908Z,14.31
2022-10-13T07:41:23.658Z,13.96
2022-10-13T07:46:26.092Z,13.79
2022-10-13T07:51:28.615Z,13.68
2022-10-13T07:56:31.111Z,13.63
2022-10-13T08:01:33.578Z,13.59
2022-10-13T08:06:36.031Z,13.63
2022-10-13T08:11:38.600Z,15.66
2022-10-13T08:16:44.286Z,17.09
2022-10-13T08:22:02.269Z,15.91
2022-10-13T08:27:04.783Z,15.15
2022-10-13T08:32:07.229Z,14.70
2022-10-13T08:37:12.543Z,14.42
2022-10-13T08:42:18.631Z,14.19
2022-10-13T08:47:24.133Z,14.06
2022-10-13T08:52:27.906Z,14.05
2022-10-13T08:57:30.538Z,14.13
2022-10-13T09:02:33.077Z,14.23
2022-10-13T09:07:37.079Z,15.30
2022-10-13T09:12:39.509Z,17.13
2022-10-13T09:17:42.173Z,16.25
2022-10-13T09:22:45.273Z,15.62
2022-10-13T09:27:49.958Z,15.36
2022-10-13T09:32:55.335Z,15.20
2022-10-13T09:38:00.725Z,15.06
2022-10-13T09:43:20.319Z,15.01
2022-10-13T09:48:25.327Z,15.02
2022-10-13T09:53:32.444Z,15.08
2022-10-13T09:58:38.431Z,15.24
2022-10-13T10:03:41.112Z,15.34
2022-10-13T10:09:02.750Z,15.35
2022-10-13T10:14:09.337Z,15.43
2022-10-13T10:19:12.721Z,15.55
2022-10-13T10:24:18.159Z,15.57
2022-10-13T10:29:23.604Z,15.57
2022-10-13T10:34:28.825Z,15.58
2022-10-13T10:39:34.557Z,15.56
2022-10-13T10:44:41.216Z,15.60
2022-10-13T10:49:44.236Z,15.63
2022-10-13T10:54:51.628Z,15.64
2022-10-13T10:59:56.949Z,15.84
2022-10-13T11:05:05.213Z,16.02
2022-10-13T11:10:09.832Z,16.18
2022-10-13T11:15:16.265Z,16.20
2022-10-13T11:20:20.701Z,16.40
2022-10-13T11:25:26.193Z,16.64
2022-10-13T11:30:31.669Z,16.84
2022-10-13T11:35:34.060Z,17.00
2022-10-13T11:40:39.408Z,16.99
2022-10-13T11:45:47.305Z,16.93
2022-10-13T11:50:49.723Z,16.92
2022-10-13T11:55:52.174Z,16.80
2022-10-13T12:00:55.532Z,16.83
2022-10-13T12:06:00.755Z,17.01
2022-10-13T12:11:07.374Z,17.01
2022-10-13T12:16:13.445Z,17.03
2022-10-13T12:27:56.193Z,17.02
2022-10-13T12:32:59.734Z,16.85
2022-10-13T12:38:05.064Z,16.73
2022-10-13T12:43:07.523Z,16.51
2022-10-13T12:48:28.764Z,16.33
2022-10-13T12:53:31.220Z,16.34
2022-10-13T12:58:34.727Z,16.34
2022-10-13T13:03:38.389Z,16.36
2022-10-13T13:08:42.492Z,16.35
2022-10-13T13:13:44.884Z,16.30
2022-10-13T13:18:48.414Z,16.21
2022-10-13T13:23:53.773Z,16.11
2022-10-13T13:28:56.905Z,16.02
2022-10-13T13:33:59.350Z,15.92
2022-10-13T13:39:01.693Z,15.82
2022-10-13T13:44:04.124Z,15.75
2022-10-13T13:49:06.524Z,15.73
2022-10-13T13:54:08.880Z,15.67
2022-10-13T13:59:13.750Z,15.59
2022-10-13T14:04:16.087Z,15.54
2022-10-13T14:09:18.594Z,15.50
2022-10-13T14:14:21.406Z,15.84
2022-10-13T14:19:23.832Z,16.56
2022-10-13T14:24:26.169Z,17.21
2022-10-13T14:29:28.533Z,17.61
2022-10-13T14:34:31.118Z,17.86
2022-10-13T14:39:33.715Z,17.63
2022-10-13T14:44:36.183Z,16.83
2022-10-13T14:49:38.601Z,16.03
2022-10-13T14:54:44.676Z,15.41
2022-10-13T14:59:47.576Z,14.90
2022-10-13T15:04:49.976Z,14.46
2022-10-13T15:10:04.182Z,14.09
2022-10-13T15:15:08.435Z,13.73
2022-10-13T15:20:11.044Z,13.38
2022-10-13T15:25:13.651Z,13.03
2022-10-13T15:30:16.046Z,12.69
2022-10-13T15:35:18.400Z,12.35
2022-10-13T15:40:20.743Z,12.02
2022-10-13T15:45:23.078Z,11.71
2022-10-13T15:50:25.533Z,11.41
2022-10-13T15:55:28.662Z,11.12
2022-10-13T16:00:31.157Z,10.83
2022-10-13T16:05:33.621Z,10.55
2022-10-13T16:10:38.195Z,10.30
2022-10-13T16:15:41.186Z,10.05
2022-10-13T16:20:45.300Z,9.81
2022-10-13T16:25:47.885Z,9.58
2022-10-13T16:30:50.303Z,9.41
2022-10-13T16:36:01.240Z,11.28
2022-10-13T16:41:06.797Z,13.57
2022-10-13T16:46:12.781Z,14.58
2022-10-13T16:51:16.741Z,13.27
2022-10-13T16:56:22.253Z,11.82
2022-10-13T17:01:25.732Z,10.96
2022-10-13T17:06:28.670Z,10.30
2022-10-13T17:11:31.867Z,11.29
2022-10-13T17:16:35.573Z,13.46
2022-10-13T17:21:38.050Z,14.13
2022-10-13T17:26:40.432Z,12.42
2022-10-13T17:31:43.768Z,11.04
2022-10-13T17:36:46.270Z,10.28
2022-10-13T17:41:48.870Z,11.87
2022-10-13T17:46:51.352Z,13.63
2022-10-13T17:51:54.586Z,13.41
2022-10-13T17:56:57.182Z,11.50
2022-10-13T18:01:59.682Z,10.38
2022-10-13T18:07:02.153Z,11.63
2022-10-13T18:12:04.629Z,13.46
2022-10-13T18:17:07.221Z,13.26
2022-10-13T18:22:09.594Z,11.39
2022-10-13T18:27:12.157Z,10.23
2022-10-13T18:32:14.538Z,10.44
2022-10-13T18:37:16.945Z,12.68
2022-10-13T18:42:19.333Z,13.61
2022-10-13T18:47:22.189Z,11.98
2022-10-13T18:52:24.924Z,10.40
2022-10-13T18:57:27.317Z,11.29
2022-10-13T19:09:00.460Z,12.61
2022-10-13T19:14:04.149Z,10.75
2022-10-13T19:19:08.807Z,9.69
2022-10-13T19:24:11.524Z,10.91
2022-10-13T19:29:15.505Z,12.84
2022-10-13T19:34:17.890Z,13.22
2022-10-13T19:40:11.273Z,11.31
2022-10-13T19:45:13.810Z,10.01
2022-10-13T19:50:16.219Z,11.76
2022-10-13T19:55:18.631Z,13.27
2022-10-13T20:00:21.094Z,12.54
2022-10-13T20:05:25.585Z,10.74
2022-10-13T20:10:28.071Z,9.89
2022-10-13T20:15:30.485Z,11.75
2022-10-13T20:20:34.212Z,13.27
2022-10-13T20:25:37.763Z,12.84
2022-10-13T20:30:40.224Z,11.04
2022-10-13T20:35:42.628Z,10.03
2022-10-13T20:40:45.086Z,11.22
2022-10-13T20:45:47.450Z,13.19
2022-10-13T20:50:49.829Z,13.31
2022-10-13T20:55:55.456Z,11.45
2022-10-13T21:00:57.975Z,10.29
2022-10-13T21:06:01.807Z,11.57
2022-10-13T21:11:06.808Z,13.42
2022-10-13T21:16:11.205Z,13.03
2022-10-13T21:21:13.981Z,11.21
2022-10-13T21:26:21.417Z,10.35
2022-10-13T21:31:24.703Z,12.18
2022-10-13T21:36:29.149Z,13.66
2022-10-13T21:41:31.651Z,12.45
2022-10-13T21:46:34.617Z,10.89
2022-10-13T21:51:38.347Z,10.00
2022-10-13T21:56:41.127Z,11.40
2022-10-13T22:01:43.965Z,13.23
2022-10-13T22:06:46.527Z,12.87
2022-10-13T22:11:52.842Z,10.90
2022-10-13T22:16:58.025Z,10.56
2022-10-13T22:22:00.457Z,12.60
2022-10-13T22:27:02.990Z,13.38
2022-10-13T22:32:05.537Z,11.68
2022-10-13T22:37:07.956Z,10.59
2022-10-13T22:42:10.348Z,12.38
2022-10-13T22:47:12.862Z,13.45
2022-10-13T22:52:15.243Z,11.89
2022-10-13T22:57:17.723Z,10.44
2022-10-13T23:02:20.130Z,11.87
2022-10-13T23:07:23.096Z,13.46
2022-10-13T23:12:25.818Z,12.50
2022-10-13T23:24:18.066Z,11.93
2022-10-13T23:29:20.477Z,13.49
2022-10-13T23:34:22.907Z,12.68
2022-10-13T23:39:25.438Z,10.90
2022-10-13T23:44:29.805Z,10.37
2022-10-13T23:49:32.241Z,12.44
2022-10-13T23:54:34.681Z,13.52
2022-10-13T23:59:37.275Z,11.98
